Brookfield, Wisconsin
Current Conditions -  °F | °C
As of 5:45 AM on Friday 21 Nov 2014 (Local Time) from KUES Reporting Station
Clear Clear  
Wind Chill:   Ceiling: Unl
Heat Index:   Visibility: 10mi
Dew Point: -2°   Wind: 0mph
Humidity: 85%   Direction: NA
Pressure: 30.38"   Gusts: NA
Location:  43.06°N, 88.13°W
Report Text: KUES 211145Z 00000KT 10SM SKC M17/M19 A3038
Loading
Personal Weather Stations






























Interactive Weather Map New forecast layout! Learn more

10-Day Weather Forecast

Advertisements
Track Severe Weather on mobile